Time;durP1;ratioP1;P1;durP2;ratioP2;P2;SDS_P1;SDS_P2;PMS_P1;PMS_P2;Temp;Humidity;BMP_temperature;BMP_pressure;BME280_temperature;BME280_humidity;BME280_pressure;Samples;Min_cycle;Max_cycle;Signal;HPM_P1;HPM_P2
2022/09/01 00:01:40;;;;;;;16.42;14.73;;;;;;;;;;5033719;28;20053;-66
2022/09/01 00:04:08;;;;;;;14.95;13.45;;;;;;;;;;5033325;28;20420;-66
2022/09/01 00:06:37;;;;;;;16.17;14.57;;;;;;;;;;5033386;28;20041;-67
2022/09/01 00:09:06;;;;;;;16.58;14.98;;;;;;;;;;5033013;28;20054;-67
2022/09/01 00:11:32;;;;;;;16.95;15.23;;;;;;;;;;5033036;28;20057;-67
2022/09/01 00:14:00;;;;;;;16.20;14.57;;;;;;;;;;5033333;28;20464;-67
2022/09/01 00:16:27;;;;;;;16.55;14.70;;;;;;;;;;5033279;28;20422;-66
2022/09/01 00:18:54;;;;;;;16.60;14.93;;;;;;;;;;5033119;28;20050;-66
2022/09/01 00:21:25;;;;;;;16.70;14.90;;;;;;;;;;5033019;28;20459;-66
2022/09/01 00:23:51;;;;;;;16.20;14.57;;;;;;;;;;5033546;28;20056;-66
2022/09/01 00:26:18;;;;;;;16.05;14.35;;;;;;;;;;5032856;28;20049;-67
2022/09/01 00:28:45;;;;;;;15.95;14.25;;;;;;;;;;5032664;28;20057;-67
2022/09/01 00:31:13;;;;;;;16.27;13.48;;;;;;;;;;5032731;28;20045;-67
2022/09/01 00:33:41;;;;;;;17.42;15.65;;;;;;;;;;5032751;28;20504;-67
2022/09/01 00:36:08;;;;;;;16.85;14.73;;;;;;;;;;5015262;28;20053;-66
2022/09/01 00:38:36;;;;;;;19.80;14.98;;;;;;;;;;5032539;28;20052;-67
2022/09/01 00:41:04;;;;;;;16.52;14.63;;;;;;;;;;5031919;28;20056;-67
2022/09/01 00:43:35;;;;;;;17.30;14.77;;;;;;;;;;5032541;28;20057;-67
2022/09/01 00:46:09;;;;;;;15.85;14.23;;;;;;;;;;5032690;28;20056;-67
2022/09/01 00:48:36;;;;;;;16.13;14.27;;;;;;;;;;5032504;28;20057;-67
2022/09/01 00:51:04;;;;;;;16.05;14.45;;;;;;;;;;5032293;28;20053;-67
2022/09/01 00:53:31;;;;;;;16.85;14.13;;;;;;;;;;5031264;28;20053;-66
2022/09/01 00:55:58;;;;;;;16.17;13.15;;;;;;;;;;5015070;28;20112;-67
2022/09/01 00:58:25;;;;;;;17.95;14.88;;;;;;;;;;5032508;28;20432;-68
2022/09/01 01:00:52;;;;;;;15.93;14.23;;;;;;;;;;5015017;28;20057;-67
2022/09/01 01:03:19;;;;;;;15.35;13.82;;;;;;;;;;5032684;28;20064;-66
2022/09/01 01:05:52;;;;;;;14.40;12.98;;;;;;;;;;5032158;28;20497;-67
2022/09/01 01:08:35;;;;;;;15.07;13.48;;;;;;;;;;4999957;28;20076;-67
2022/09/01 01:11:04;;;;;;;14.73;12.77;;;;;;;;;;5016268;28;20057;-66
2022/09/01 01:13:34;;;;;;;14.02;12.52;;;;;;;;;;4998578;28;20523;-67
2022/09/01 01:16:02;;;;;;;14.13;12.60;;;;;;;;;;5032095;28;20054;-67
2022/09/01 01:18:29;;;;;;;14.00;12.60;;;;;;;;;;5031927;28;20057;-67
2022/09/01 01:23:56;;;;;;;14.57;12.55;;;;;;;;;;5017648;28;20049;-67
2022/09/01 01:26:23;;;;;;;14.15;12.45;;;;;;;;;;4998642;28;20056;-66
2022/09/01 01:28:51;;;;;;;14.73;13.23;;;;;;;;;;5031793;28;20060;-67
2022/09/01 01:31:22;;;;;;;15.90;13.45;;;;;;;;;;5031857;28;20053;-67
2022/09/01 01:33:52;;;;;;;15.15;13.65;;;;;;;;;;5031832;28;20485;-66
2022/09/01 01:36:25;;;;;;;14.82;13.05;;;;;;;;;;5031801;28;20467;-67
2022/09/01 01:38:54;;;;;;;14.80;13.13;;;;;;;;;;5031722;28;20445;-67
2022/09/01 01:41:23;;;;;;;18.25;14.18;;;;;;;;;;5031780;28;20453;-67
2022/09/01 01:43:49;;;;;;;16.08;13.63;;;;;;;;;;5032020;28;20049;-66
2022/09/01 01:46:16;;;;;;;15.02;13.43;;;;;;;;;;5031870;28;20049;-67
2022/09/01 01:48:46;;;;;;;13.60;12.18;;;;;;;;;;5031669;28;20057;-66
2022/09/01 01:51:12;;;;;;;14.55;13.10;;;;;;;;;;5031768;28;20046;-67
2022/09/01 01:53:39;;;;;;;16.20;13.88;;;;;;;;;;5015587;28;20059;-66
2022/09/01 01:56:07;;;;;;;16.42;14.18;;;;;;;;;;5036059;28;20060;-69
2022/09/01 01:58:34;;;;;;;15.35;13.85;;;;;;;;;;5035957;28;20087;-66
2022/09/01 02:01:02;;;;;;;16.55;14.65;;;;;;;;;;5036018;28;20073;-67
2022/09/01 02:03:35;;;;;;;15.82;13.57;;;;;;;;;;5035530;28;20501;-67
2022/09/01 02:06:03;;;;;;;14.75;13.15;;;;;;;;;;5018620;28;20071;-69
2022/09/01 02:08:30;;;;;;;15.55;13.88;;;;;;;;;;5035250;28;20492;-69
2022/09/01 02:10:58;;;;;;;17.30;14.77;;;;;;;;;;5035493;28;20045;-70
2022/09/01 02:13:29;;;;;;;22.48;15.18;;;;;;;;;;5035434;28;20136;-70
2022/09/01 02:16:02;;;;;;;18.17;16.35;;;;;;;;;;5035371;28;20080;-66
2022/09/01 02:18:37;;;;;;;19.00;15.63;;;;;;;;;;5035584;28;20049;-70
2022/09/01 02:21:08;;;;;;;18.83;16.15;;;;;;;;;;5035502;28;20460;-70
2022/09/01 02:23:40;;;;;;;21.55;15.73;;;;;;;;;;5019264;28;20060;-70
2022/09/01 02:26:10;;;;;;;19.60;16.48;;;;;;;;;;5035353;28;20076;-69
2022/09/01 02:28:48;;;;;;;16.17;14.50;;;;;;;;;;5035112;28;20142;-66
2022/09/01 02:31:21;;;;;;;19.65;15.38;;;;;;;;;;5035154;28;20049;-67
2022/09/01 02:33:48;;;;;;;17.08;15.30;;;;;;;;;;5035328;28;20428;-69
2022/09/01 02:36:18;;;;;;;17.40;15.68;;;;;;;;;;5035131;28;20050;-69
2022/09/01 02:38:47;;;;;;;19.38;17.30;;;;;;;;;;5034755;28;20049;-69
2022/09/01 02:41:22;;;;;;;21.95;17.48;;;;;;;;;;5034946;28;20128;-69
2022/09/01 02:43:49;;;;;;;19.67;15.88;;;;;;;;;;5034869;28;20061;-69
2022/09/01 02:46:16;;;;;;;22.42;16.05;;;;;;;;;;5035065;28;20045;-69
2022/09/01 02:48:44;;;;;;;20.33;17.55;;;;;;;;;;5034522;28;20489;-69
2022/09/01 02:51:14;;;;;;;18.20;15.57;;;;;;;;;;5034901;28;20077;-69
2022/09/01 02:53:42;;;;;;;18.33;16.40;;;;;;;;;;5034814;28;20052;-69
2022/09/01 02:56:12;;;;;;;20.23;16.48;;;;;;;;;;5034812;28;20063;-69
2022/09/01 02:58:50;;;;;;;19.42;16.88;;;;;;;;;;5034552;28;20049;-69
2022/09/01 03:01:27;;;;;;;20.00;16.20;;;;;;;;;;5034856;28;20052;-68
2022/09/01 03:04:01;;;;;;;17.45;15.63;;;;;;;;;;5017039;28;20056;-70
2022/09/01 03:06:29;;;;;;;;;;;;;;;;;;5018111;28;20049;-69
2022/09/01 03:09:00;;;;;;;18.85;15.93;;;;;;;;;;5034117;28;19925;-69
2022/09/01 03:11:29;;;;;;;18.10;16.08;;;;;;;;;;5034381;28;20046;-70
2022/09/01 03:13:56;;;;;;;17.85;16.05;;;;;;;;;;5034386;28;20425;-69
2022/09/01 03:16:23;;;;;;;19.85;17.25;;;;;;;;;;5034567;28;20052;-70
2022/09/01 03:18:50;;;;;;;18.27;16.42;;;;;;;;;;5083535;22;20051;-67
2022/09/01 03:21:18;;;;;;;18.58;16.75;;;;;;;;;;5056599;28;20045;-67
2022/09/01 03:23:46;;;;;;;18.65;16.73;;;;;;;;;;5074077;28;20048;-66
2022/09/01 03:26:13;;;;;;;18.25;16.45;;;;;;;;;;5056373;28;20081;-66
2022/09/01 03:28:40;;;;;;;17.58;15.77;;;;;;;;;;5073991;28;20045;-67
2022/09/01 03:31:07;;;;;;;17.48;15.73;;;;;;;;;;5074258;28;20067;-68
2022/09/01 03:33:35;;;;;;;17.73;15.88;;;;;;;;;;5073858;28;20136;-65
2022/09/01 03:36:03;;;;;;;19.40;16.73;;;;;;;;;;5039791;28;20415;-67
2022/09/01 03:38:42;;;;;;;18.83;16.77;;;;;;;;;;5057335;28;20052;-67
2022/09/01 03:41:11;;;;;;;19.58;17.48;;;;;;;;;;5040109;28;20048;-67
2022/09/01 03:43:39;;;;;;;21.90;16.95;;;;;;;;;;5056243;28;20063;-65
2022/09/01 03:46:23;;;;;;;21.40;17.55;;;;;;;;;;5056997;28;20059;-65
2022/09/01 03:48:53;;;;;;;21.27;18.00;;;;;;;;;;5042282;28;20052;-66
2022/09/01 03:51:22;;;;;;;18.63;16.75;;;;;;;;;;5039998;28;20415;-66
2022/09/01 03:53:53;;;;;;;21.42;18.25;;;;;;;;;;5055922;28;20055;-67
2022/09/01 03:56:22;;;;;;;22.27;19.25;;;;;;;;;;5056391;28;20063;-66
2022/09/01 03:58:51;;;;;;;21.45;18.33;;;;;;;;;;5073028;28;20498;-65
2022/09/01 04:01:18;;;;;;;25.92;20.30;;;;;;;;;;5056108;28;20044;-65
2022/09/01 04:03:46;;;;;;;21.95;19.60;;;;;;;;;;5073659;28;20139;-66
2022/09/01 04:06:14;;;;;;;21.75;19.40;;;;;;;;;;5055820;28;20045;-66
2022/09/01 04:08:41;;;;;;;21.67;18.75;;;;;;;;;;5038872;28;20419;-66
2022/09/01 04:11:22;;;;;;;23.15;20.40;;;;;;;;;;5055813;28;20052;-66
2022/09/01 04:13:49;;;;;;;23.23;19.20;;;;;;;;;;5023959;28;20423;-66
2022/09/01 04:19:18;;;;;;;24.25;18.73;;;;;;;;;;5057773;28;20080;-66
2022/09/01 04:21:49;;;;;;;19.25;17.15;;;;;;;;;;5042041;28;20423;-66
2022/09/01 04:24:17;;;;;;;22.40;19.70;;;;;;;;;;5055866;28;20052;-67
2022/09/01 04:26:47;;;;;;;22.58;19.02;;;;;;;;;;5055583;28;20048;-67
2022/09/01 04:29:18;;;;;;;26.02;19.95;;;;;;;;;;5055225;28;20107;-67
2022/09/01 04:31:47;;;;;;;22.23;18.75;;;;;;;;;;5055558;28;20132;-68
2022/09/01 04:34:15;;;;;;;24.08;19.58;;;;;;;;;;5039257;28;20052;-67
2022/09/01 04:36:43;;;;;;;25.17;19.50;;;;;;;;;;5072448;28;20445;-66
2022/09/01 04:39:12;;;;;;;26.60;20.45;;;;;;;;;;5054930;28;20040;-66
2022/09/01 04:41:44;;;;;;;24.60;20.75;;;;;;;;;;5055191;28;20076;-68
2022/09/01 04:44:14;;;;;;;21.67;18.45;;;;;;;;;;5055098;28;20052;-68
2022/09/01 04:46:45;;;;;;;24.08;17.55;;;;;;;;;;5039104;28;20052;-67
2022/09/01 04:49:18;;;;;;;22.23;19.52;;;;;;;;;;5055178;28;20465;-68
2022/09/01 04:51:46;;;;;;;24.20;20.92;;;;;;;;;;5055565;28;20059;-67
2022/09/01 04:54:20;;;;;;;21.70;19.38;;;;;;;;;;5072383;28;20056;-66
2022/09/01 04:56:49;;;;;;;23.48;20.60;;;;;;;;;;5054622;28;20048;-66
2022/09/01 04:59:19;;;;;;;23.85;21.27;;;;;;;;;;5054696;28;20044;-67
2022/09/01 05:01:49;;;;;;;21.88;19.38;;;;;;;;;;5055013;28;20044;-67
2022/09/01 05:04:18;;;;;;;24.98;20.10;;;;;;;;;;5038621;28;20052;-67
2022/09/01 05:06:48;;;;;;;29.10;22.35;;;;;;;;;;5054706;28;20048;-66
2022/09/01 05:09:16;;;;;;;26.45;21.02;;;;;;;;;;5071801;28;20048;-66
2022/09/01 05:11:44;;;;;;;30.13;23.15;;;;;;;;;;5071901;28;20044;-67
2022/09/01 05:14:11;;;;;;;28.33;22.38;;;;;;;;;;5072158;28;20048;-67
2022/09/01 05:16:39;;;;;;;31.42;25.58;;;;;;;;;;5072175;28;20048;-67
2022/09/01 05:19:09;;;;;;;29.70;23.85;;;;;;;;;;5037713;28;20056;-65
2022/09/01 05:21:37;;;;;;;27.00;23.42;;;;;;;;;;5054798;28;20054;-66
2022/09/01 05:24:04;;;;;;;25.70;22.17;;;;;;;;;;5054142;28;20052;-67
2022/09/01 05:26:32;;;;;;;26.20;22.70;;;;;;;;;;5071919;28;20044;-67
2022/09/01 05:29:02;;;;;;;24.58;21.25;;;;;;;;;;5054057;28;20041;-65
2022/09/01 05:31:33;;;;;;;27.30;22.40;;;;;;;;;;5054408;28;20063;-67
2022/09/01 05:34:02;;;;;;;29.65;22.73;;;;;;;;;;5055351;28;20106;-67
2022/09/01 05:36:32;;;;;;;30.30;23.00;;;;;;;;;;5054307;28;20052;-67
2022/09/01 05:39:00;;;;;;;28.52;22.85;;;;;;;;;;5038067;28;20399;-67
2022/09/01 05:41:27;;;;;;;25.70;22.85;;;;;;;;;;5054178;28;20053;-65
2022/09/01 05:43:54;;;;;;;26.88;22.58;;;;;;;;;;5071859;28;20052;-67
2022/09/01 05:46:26;;;;;;;28.52;22.92;;;;;;;;;;5071890;28;20052;-67
2022/09/01 05:48:54;;;;;;;27.27;21.05;;;;;;;;;;5053982;28;20048;-67
2022/09/01 05:51:25;;;;;;;27.40;22.85;;;;;;;;;;5053885;28;20272;-67
2022/09/01 05:54:10;;;;;;;24.92;21.48;;;;;;;;;;5072004;28;20419;-67
2022/09/01 05:56:39;;;;;;;25.73;20.95;;;;;;;;;;5071755;28;20144;-66
2022/09/01 05:59:10;;;;;;;26.48;22.50;;;;;;;;;;5071402;28;20048;-66
2022/09/01 06:01:53;;;;;;;25.35;21.63;;;;;;;;;;5042208;28;20060;-68
2022/09/01 06:04:21;;;;;;;24.58;21.45;;;;;;;;;;5054184;28;20052;-68
2022/09/01 06:06:48;;;;;;;23.35;20.92;;;;;;;;;;5071658;28;20059;-66
2022/09/01 06:09:43;;;;;;;25.33;21.83;;;;;;;;;;5056682;28;20392;-66
2022/09/01 06:12:16;;;;;;;25.35;20.70;;;;;;;;;;5071431;28;20052;-67
2022/09/01 06:14:45;;;;;;;30.15;21.55;;;;;;;;;;5055176;28;20060;-66
2022/09/01 06:17:15;;;;;;;22.33;19.92;;;;;;;;;;5053933;28;20491;-67
2022/09/01 06:19:42;;;;;;;22.42;19.95;;;;;;;;;;5071128;28;20463;-66
2022/09/01 06:22:09;;;;;;;24.48;20.77;;;;;;;;;;5054013;28;20060;-67
2022/09/01 06:24:38;;;;;;;22.20;19.50;;;;;;;;;;5071266;28;20044;-65
2022/09/01 06:27:08;;;;;;;24.42;18.88;;;;;;;;;;5054317;28;20133;-67
2022/09/01 06:29:41;;;;;;;23.05;19.02;;;;;;;;;;5071041;28;20487;-67
2022/09/01 06:32:11;;;;;;;24.25;18.33;;;;;;;;;;5071438;28;20048;-67
2022/09/01 06:34:41;;;;;;;20.25;17.50;;;;;;;;;;5054148;28;20055;-67
2022/09/01 06:37:12;;;;;;;21.15;18.90;;;;;;;;;;5053728;28;20048;-67
2022/09/01 06:39:39;;;;;;;21.52;18.65;;;;;;;;;;5054804;28;20045;-67
2022/09/01 06:42:08;;;;;;;21.75;17.35;;;;;;;;;;5057349;28;20055;-68
2022/09/01 06:44:34;;;;;;;21.05;17.52;;;;;;;;;;5074800;28;20049;-66
2022/09/01 06:47:07;;;;;;;19.85;17.10;;;;;;;;;;5075005;28;20102;-68
2022/09/01 06:49:35;;;;;;;18.08;15.63;;;;;;;;;;5074425;28;20087;-68
2022/09/01 06:52:03;;;;;;;20.83;16.52;;;;;;;;;;5075075;28;20052;-68
2022/09/01 06:54:32;;;;;;;19.75;15.95;;;;;;;;;;5056898;28;20055;-67
2022/09/01 06:57:02;;;;;;;21.05;16.90;;;;;;;;;;5057569;28;20053;-66
2022/09/01 06:59:50;;;;;;;18.17;14.60;;;;;;;;;;5074069;28;20064;-68
2022/09/01 07:02:38;;;;;;;19.17;16.05;;;;;;;;;;5059805;28;20502;-67
2022/09/01 07:05:06;;;;;;;18.63;15.68;;;;;;;;;;5057237;28;20529;-66
2022/09/01 07:07:33;;;;;;;19.98;15.27;;;;;;;;;;5074651;28;20048;-67
2022/09/01 07:10:21;;;;;;;17.48;14.05;;;;;;;;;;5074044;28;20056;-67
2022/09/01 07:12:54;;;;;;;15.63;13.35;;;;;;;;;;5074268;28;20052;-67
2022/09/01 07:15:41;;;;;;;14.60;13.10;;;;;;;;;;5074646;28;20056;-68
2022/09/01 07:18:29;;;;;;;15.80;13.27;;;;;;;;;;5059147;28;20055;-66
2022/09/01 07:20:56;;;;;;;15.88;14.13;;;;;;;;;;5056726;28;20106;-67
2022/09/01 07:23:43;;;;;;;15.27;13.43;;;;;;;;;;5059278;28;20048;-67
2022/09/01 07:26:30;;;;;;;15.15;13.00;;;;;;;;;;5059188;28;20499;-67
2022/09/01 07:28:57;;;;;;;14.50;12.43;;;;;;;;;;5073788;28;20098;-67
2022/09/01 07:31:30;;;;;;;12.77;11.48;;;;;;;;;;5074290;28;20404;-67
2022/09/01 07:34:17;;;;;;;13.15;10.95;;;;;;;;;;5059485;28;20048;-67
2022/09/01 07:37:03;;;;;;;12.95;11.65;;;;;;;;;;5073725;28;20479;-66
2022/09/01 07:39:50;;;;;;;11.55;10.35;;;;;;;;;;5058578;28;20061;-68
2022/09/01 07:42:18;;;;;;;11.35;9.55;;;;;;;;;;5073985;28;20048;-68
2022/09/01 07:45:10;;;;;;;12.63;10.45;;;;;;;;;;5058885;28;20048;-67
2022/09/01 07:47:54;;;;;;;10.57;9.48;;;;;;;;;;5045444;28;20098;-68
2022/09/01 07:50:22;;;;;;;10.68;9.68;;;;;;;;;;5073714;28;20506;-67
2022/09/01 07:53:07;;;;;;;11.30;9.75;;;;;;;;;;5059271;28;20055;-68
2022/09/01 07:55:39;;;;;;;10.30;9.23;;;;;;;;;;5039934;28;20049;-68
2022/09/01 07:58:05;;;;;;;9.77;8.77;;;;;;;;;;5055918;28;20048;-68
2022/09/01 08:00:33;;;;;;;9.73;8.73;;;;;;;;;;5072973;28;20058;-66
2022/09/01 08:03:00;;;;;;;9.65;8.65;;;;;;;;;;5073335;28;20131;-68
2022/09/01 08:05:27;;;;;;;9.13;8.20;;;;;;;;;;5073584;28;20048;-67
2022/09/01 08:07:54;;;;;;;12.57;9.07;;;;;;;;;;5073481;28;20470;-68
2022/09/01 08:10:21;;;;;;;10.18;8.88;;;;;;;;;;5038980;28;20045;-67
2022/09/01 08:12:49;;;;;;;10.73;8.38;;;;;;;;;;5073219;28;20055;-68
2022/09/01 08:15:24;;;;;;;8.90;7.97;;;;;;;;;;5056971;28;20048;-68
2022/09/01 08:18:11;;;;;;;7.85;7.05;;;;;;;;;;5057998;28;20045;-66
2022/09/01 08:20:44;;;;;;;8.88;8.07;;;;;;;;;;5073282;28;20052;-68
2022/09/01 08:23:13;;;;;;;9.60;8.60;;;;;;;;;;5055997;28;20083;-67
2022/09/01 08:25:41;;;;;;;10.30;7.95;;;;;;;;;;5039408;28;20412;-68
2022/09/01 08:28:08;;;;;;;7.95;7.15;;;;;;;;;;5038465;28;20488;-68
2022/09/01 08:30:37;;;;;;;8.15;7.40;;;;;;;;;;5055419;28;20055;-67
2022/09/01 08:33:04;;;;;;;8.98;7.72;;;;;;;;;;5072821;28;20055;-68
2022/09/01 08:35:42;;;;;;;7.90;7.20;;;;;;;;;;5056314;28;20135;-68
2022/09/01 08:38:09;;;;;;;7.20;6.50;;;;;;;;;;5038572;28;20052;-66
2022/09/01 08:40:36;;;;;;;6.45;5.70;;;;;;;;;;5054904;28;20520;-67
2022/09/01 08:43:12;;;;;;;5.80;5.30;;;;;;;;;;5055121;28;20098;-67
2022/09/01 08:45:43;;;;;;;6.43;5.75;;;;;;;;;;5039706;28;20128;-68
2022/09/01 08:48:41;;;;;;;7.32;6.10;;;;;;;;;;5072408;28;20052;-67
2022/09/01 08:51:39;;;;;;;6.07;5.47;;;;;;;;;;5061567;28;20496;-66
2022/09/01 08:54:36;;;;;;;6.35;5.75;;;;;;;;;;5054786;28;20052;-68
2022/09/01 08:57:20;;;;;;;6.13;5.00;;;;;;;;;;5041403;28;20048;-66
2022/09/01 08:59:47;;;;;;;5.68;4.97;;;;;;;;;;5055166;28;20278;-68
2022/09/01 09:02:50;;;;;;;5.05;4.55;;;;;;;;;;5038150;28;20060;-68
2022/09/01 09:05:32;;;;;;;5.40;4.88;;;;;;;;;;5072323;28;20044;-68
2022/09/01 09:07:59;;;;;;;6.00;4.65;;;;;;;;;;5055562;28;20498;-68
2022/09/01 09:10:51;;;;;;;6.75;4.82;;;;;;;;;;5072343;28;20048;-67
2022/09/01 09:13:22;;;;;;;4.57;4.15;;;;;;;;;;5038646;28;20044;-67
2022/09/01 09:16:09;;;;;;;5.75;3.88;;;;;;;;;;5054466;28;20048;-67
2022/09/01 09:18:49;;;;;;;4.90;4.40;;;;;;;;;;5078907;22;20044;-65
2022/09/01 09:21:28;;;;;;;3.97;3.67;;;;;;;;;;5021144;28;20056;-66
2022/09/01 09:24:12;;;;;;;5.32;4.30;;;;;;;;;;5035242;28;20057;-66
2022/09/01 09:26:48;;;;;;;5.25;4.75;;;;;;;;;;5051884;28;20060;-66
2022/09/01 09:29:16;;;;;;;5.57;4.88;;;;;;;;;;5001643;28;20499;-66
2022/09/01 09:31:47;;;;;;;4.57;4.18;;;;;;;;;;5018283;28;20055;-65
2022/09/01 09:34:34;;;;;;;4.95;4.20;;;;;;;;;;5019381;28;20538;-66
2022/09/01 09:37:27;;;;;;;4.90;4.35;;;;;;;;;;5018468;28;20050;-65
2022/09/01 09:40:10;;;;;;;5.22;4.05;;;;;;;;;;5051423;28;20045;-65
2022/09/01 09:42:38;;;;;;;4.22;3.83;;;;;;;;;;5018409;28;20245;-65
2022/09/01 09:45:33;;;;;;;5.10;4.55;;;;;;;;;;5018158;28;20063;-66
2022/09/01 09:48:08;;;;;;;5.60;4.07;;;;;;;;;;5024584;28;20052;-65
2022/09/01 09:50:41;;;;;;;3.72;3.33;;;;;;;;;;5035299;28;20063;-66
2022/09/01 09:53:29;;;;;;;3.40;3.15;;;;;;;;;;5034418;28;20154;-66
2022/09/01 09:56:15;;;;;;;3.65;3.35;;;;;;;;;;5034031;28;20064;-66
2022/09/01 09:58:42;;;;;;;3.90;3.50;;;;;;;;;;5019924;28;20049;-66
2022/09/01 10:01:27;;;;;;;4.22;2.97;;;;;;;;;;5033873;28;20048;-66
2022/09/01 10:03:58;;;;;;;3.60;3.20;;;;;;;;;;5033923;28;20053;-65
2022/09/01 10:06:29;;;;;;;4.18;3.65;;;;;;;;;;5018005;28;20102;-65
2022/09/01 10:08:57;;;;;;;4.00;3.50;;;;;;;;;;5051191;28;20060;-64
2022/09/01 10:11:37;;;;;;;3.50;3.20;;;;;;;;;;5017617;28;20518;-65
2022/09/01 10:14:20;;;;;;;3.55;3.25;;;;;;;;;;5020310;28;20053;-64
2022/09/01 10:17:40;;;;;;;3.47;3.17;;;;;;;;;;5028277;28;20052;-65
2022/09/01 10:20:15;;;;;;;4.05;3.03;;;;;;;;;;5015017;28;20527;-65
2022/09/01 10:22:43;;;;;;;3.33;3.03;;;;;;;;;;5021967;28;20056;-66
2022/09/01 10:25:16;;;;;;;4.53;3.35;;;;;;;;;;5021429;28;20057;-66
2022/09/01 10:27:45;;;;;;;2.95;2.65;;;;;;;;;;5021875;28;20083;-65
2022/09/01 10:30:16;;;;;;;3.42;3.13;;;;;;;;;;5038079;28;20305;-65
2022/09/01 10:32:49;;;;;;;3.28;3.00;;;;;;;;;;5006578;28;20067;-66
2022/09/01 10:35:32;;;;;;;3.70;3.40;;;;;;;;;;5038396;28;20067;-65
2022/09/01 10:38:01;;;;;;;4.97;3.40;;;;;;;;;;5005441;28;20064;-66
2022/09/01 10:41:05;;;;;;;4.60;3.47;;;;;;;;;;5037367;28;20055;-66
2022/09/01 10:43:34;;;;;;;4.03;3.63;;;;;;;;;;5039979;28;20053;-65
2022/09/01 10:46:18;;;;;;;4.15;3.42;;;;;;;;;;5055028;28;20128;-65
2022/09/01 10:48:56;;;;;;;3.33;2.95;;;;;;;;;;5055077;28;20128;-65
2022/09/01 10:51:28;;;;;;;3.30;3.00;;;;;;;;;;5022858;28;20057;-66
2022/09/01 10:54:39;;;;;;;3.30;3.00;;;;;;;;;;5054720;28;20075;-67
2022/09/01 10:57:38;;;;;;;3.40;2.83;;;;;;;;;;5054562;28;20423;-67
2022/09/01 11:00:23;;;;;;;3.15;2.85;;;;;;;;;;5054416;28;20044;-66
2022/09/01 11:03:11;;;;;;;3.17;2.88;;;;;;;;;;5054679;28;20053;-65
2022/09/01 11:06:01;;;;;;;2.97;2.72;;;;;;;;;;5054301;28;20073;-65
2022/09/01 11:08:57;;;;;;;2.88;2.67;;;;;;;;;;5039039;28;20140;-65
2022/09/01 11:11:41;;;;;;;4.15;3.00;;;;;;;;;;5020540;28;20049;-65
2022/09/01 11:14:20;;;;;;;3.22;2.65;;;;;;;;;;5054505;28;20096;-67
2022/09/01 11:17:09;;;;;;;3.55;2.65;;;;;;;;;;5021364;28;20126;-65
2022/09/01 11:19:57;;;;;;;3.20;2.90;;;;;;;;;;5054418;28;20049;-65
2022/09/01 11:22:25;;;;;;;3.97;2.80;;;;;;;;;;5054745;28;20055;-66
2022/09/01 11:25:09;;;;;;;3.70;3.00;;;;;;;;;;5053682;28;20055;-65
2022/09/01 11:27:47;;;;;;;3.47;3.17;;;;;;;;;;5021511;28;20474;-66
2022/09/01 11:30:20;;;;;;;8.90;3.50;;;;;;;;;;5054253;28;20071;-65
2022/09/01 11:32:50;;;;;;;3.00;2.80;;;;;;;;;;5053999;28;20091;-65
2022/09/01 11:35:20;;;;;;;2.42;2.15;;;;;;;;;;5020420;28;20072;-66
2022/09/01 11:37:51;;;;;;;3.83;2.92;;;;;;;;;;5019912;28;20059;-67
2022/09/01 11:40:23;;;;;;;2.90;2.70;;;;;;;;;;5020111;28;20527;-66
2022/09/01 11:42:55;;;;;;;4.28;2.53;;;;;;;;;;5021547;28;20049;-66
2022/09/01 11:45:27;;;;;;;2.83;2.63;;;;;;;;;;5019648;28;20500;-66
2022/09/01 11:47:56;;;;;;;2.40;2.20;;;;;;;;;;5020629;28;20052;-65
2022/09/01 11:50:35;;;;;;;2.60;2.40;;;;;;;;;;5036229;28;20084;-66
2022/09/01 11:53:03;;;;;;;2.50;2.38;;;;;;;;;;5036090;28;20059;-66
2022/09/01 11:55:43;;;;;;;2.95;2.75;;;;;;;;;;5053581;28;20052;-65
2022/09/01 11:58:33;;;;;;;2.92;2.72;;;;;;;;;;5053595;28;20057;-65
2022/09/01 12:01:22;;;;;;;3.22;2.75;;;;;;;;;;5036462;28;20128;-67
2022/09/01 12:03:52;;;;;;;2.63;2.42;;;;;;;;;;5053523;28;20059;-67
2022/09/01 12:06:21;;;;;;;3.05;2.75;;;;;;;;;;5035918;28;20056;-67
2022/09/01 12:08:54;;;;;;;3.20;2.90;;;;;;;;;;5019613;28;20055;-67
2022/09/01 12:11:29;;;;;;;2.63;2.42;;;;;;;;;;5036051;28;20422;-68
2022/09/01 12:14:01;;;;;;;2.92;2.72;;;;;;;;;;5020434;28;20049;-67
2022/09/01 12:16:35;;;;;;;4.40;2.35;;;;;;;;;;5020700;28;20139;-66
2022/09/01 12:19:03;;;;;;;2.20;2.00;;;;;;;;;;5035648;28;20396;-65
2022/09/01 12:21:31;;;;;;;2.53;2.33;;;;;;;;;;5035460;28;20063;-66
2022/09/01 12:24:23;;;;;;;3.15;2.50;;;;;;;;;;5035547;28;20431;-67
2022/09/01 12:26:53;;;;;;;2.53;2.33;;;;;;;;;;5036807;28;20051;-66
2022/09/01 12:29:21;;;;;;;2.67;2.47;;;;;;;;;;5035292;28;20474;-65
2022/09/01 12:31:51;;;;;;;1.88;1.77;;;;;;;;;;5019432;28;20059;-66
2022/09/01 12:34:36;;;;;;;2.30;2.10;;;;;;;;;;5035405;28;20136;-65
2022/09/01 12:37:13;;;;;;;2.53;2.33;;;;;;;;;;5034655;28;20053;-66
2022/09/01 12:39:43;;;;;;;2.63;2.42;;;;;;;;;;5036221;28;20047;-65
2022/09/01 12:42:26;;;;;;;2.38;2.17;;;;;;;;;;5019633;28;20343;-65
2022/09/01 12:45:02;;;;;;;2.10;2.00;;;;;;;;;;5052734;28;20060;-66
2022/09/01 12:47:35;;;;;;;2.38;1.92;;;;;;;;;;5034987;28;20060;-67
2022/09/01 12:50:11;;;;;;;2.38;2.13;;;;;;;;;;5052169;28;20044;-66
2022/09/01 12:52:45;;;;;;;3.42;2.28;;;;;;;;;;5050063;28;20419;-66
2022/09/01 12:55:17;;;;;;;2.88;2.03;;;;;;;;;;5052413;28;20059;-66
2022/09/01 12:58:05;;;;;;;1.92;1.83;;;;;;;;;;5037796;28;20503;-66
2022/09/01 13:00:38;;;;;;;2.10;1.90;;;;;;;;;;5018264;28;20049;-67
2022/09/01 13:03:13;;;;;;;2.22;2.03;;;;;;;;;;5034800;28;20056;-68
2022/09/01 13:05:45;;;;;;;2.55;2.30;;;;;;;;;;5018853;28;20051;-66
2022/09/01 13:08:16;;;;;;;2.20;2.00;;;;;;;;;;5034841;28;20048;-66
2022/09/01 13:10:43;;;;;;;2.30;2.10;;;;;;;;;;5019458;28;20132;-66
2022/09/01 13:13:11;;;;;;;1.95;1.80;;;;;;;;;;5052190;28;20052;-66
2022/09/01 13:15:46;;;;;;;2.85;2.03;;;;;;;;;;5052116;28;20085;-67
2022/09/01 13:18:15;;;;;;;2.47;2.28;;;;;;;;;;5035130;28;20071;-66
2022/09/01 13:20:42;;;;;;;2.35;2.15;;;;;;;;;;5017831;28;20044;-66
2022/09/01 13:23:09;;;;;;;2.85;2.03;;;;;;;;;;5034361;28;20049;-67
2022/09/01 13:25:35;;;;;;;4.22;1.85;;;;;;;;;;5034408;28;20053;-66
2022/09/01 13:28:02;;;;;;;2.25;2.10;;;;;;;;;;5051878;28;20045;-65
2022/09/01 13:30:30;;;;;;;3.15;2.17;;;;;;;;;;5051802;28;20067;-66
2022/09/01 13:32:56;;;;;;;4.95;2.10;;;;;;;;;;5034264;28;20060;-66
2022/09/01 13:35:43;;;;;;;1.98;1.88;;;;;;;;;;5036896;28;20523;-66
2022/09/01 13:38:10;;;;;;;3.00;2.47;;;;;;;;;;5051502;28;20509;-66
2022/09/01 13:40:37;;;;;;;2.97;2.67;;;;;;;;;;5051550;28;20053;-66
2022/09/01 13:43:04;;;;;;;2.35;2.15;;;;;;;;;;5051994;28;20056;-67
2022/09/01 13:45:31;;;;;;;2.38;1.95;;;;;;;;;;5051831;28;20067;-66
2022/09/01 13:47:59;;;;;;;2.20;2.10;;;;;;;;;;5034190;28;20052;-67
2022/09/01 13:50:43;;;;;;;3.65;1.98;;;;;;;;;;5058172;28;20045;-66
2022/09/01 13:53:30;;;;;;;2.38;2.08;;;;;;;;;;5043579;28;20171;-66
2022/09/01 13:55:56;;;;;;;2.60;2.20;;;;;;;;;;5058257;28;20048;-66
2022/09/01 13:58:28;;;;;;;1.90;1.80;;;;;;;;;;5025490;28;20061;-66
2022/09/01 14:00:58;;;;;;;2.30;2.10;;;;;;;;;;5058199;28;20056;-65
2022/09/01 14:03:25;;;;;;;2.17;1.98;;;;;;;;;;5058347;28;20469;-66
2022/09/01 14:05:52;;;;;;;2.65;2.45;;;;;;;;;;5058360;28;20045;-67
2022/09/01 14:08:21;;;;;;;2.33;2.13;;;;;;;;;;5024218;28;20057;-67
2022/09/01 14:10:49;;;;;;;2.50;2.30;;;;;;;;;;5058131;28;20356;-66
2022/09/01 14:13:18;;;;;;;2.47;2.00;;;;;;;;;;5040387;28;20055;-67
2022/09/01 14:15:45;;;;;;;2.13;1.92;;;;;;;;;;5040438;28;20144;-66
2022/09/01 14:18:14;;;;;;;2.35;2.05;;;;;;;;;;5057861;28;20140;-65
2022/09/01 14:20:43;;;;;;;2.58;2.38;;;;;;;;;;5057995;28;20175;-66
2022/09/01 14:23:12;;;;;;;3.33;2.70;;;;;;;;;;5040734;28;20112;-66
2022/09/01 14:25:47;;;;;;;2.17;1.98;;;;;;;;;;5024335;28;20075;-67
2022/09/01 14:28:15;;;;;;;4.03;2.17;;;;;;;;;;5040425;28;20057;-65
2022/09/01 14:30:45;;;;;;;1.98;1.83;;;;;;;;;;5025032;28;20095;-66
2022/09/01 14:33:12;;;;;;;2.60;2.30;;;;;;;;;;5057969;28;20503;-66
2022/09/01 14:35:41;;;;;;;2.55;1.77;;;;;;;;;;5057980;28;20059;-66
2022/09/01 14:38:08;;;;;;;2.63;2.28;;;;;;;;;;5057825;28;20049;-66
2022/09/01 14:40:36;;;;;;;3.00;2.40;;;;;;;;;;5039919;28;20041;-67
2022/09/01 14:43:09;;;;;;;2.38;2.17;;;;;;;;;;5058215;28;20049;-66
2022/09/01 14:45:36;;;;;;;3.67;1.90;;;;;;;;;;5024451;28;20055;-66
2022/09/01 14:48:03;;;;;;;2.63;2.42;;;;;;;;;;5057924;28;20049;-67
2022/09/01 14:50:31;;;;;;;2.30;2.10;;;;;;;;;;5023724;28;20508;-69
2022/09/01 14:52:59;;;;;;;2.15;2.05;;;;;;;;;;5057718;28;20060;-66
2022/09/01 14:55:28;;;;;;;2.50;2.22;;;;;;;;;;5040196;28;20049;-66
2022/09/01 14:57:55;;;;;;;2.38;1.80;;;;;;;;;;5057889;28;20049;-65
2022/09/01 15:00:24;;;;;;;2.42;1.70;;;;;;;;;;5037995;28;20415;-66
2022/09/01 15:02:51;;;;;;;4.25;2.35;;;;;;;;;;5037280;28;20049;-66
2022/09/01 15:05:18;;;;;;;2.20;2.00;;;;;;;;;;5036852;28;20500;-66
2022/09/01 15:07:45;;;;;;;3.15;1.95;;;;;;;;;;5036815;28;20049;-65